sensor_id;sensor_type;location;lat;lon;timestamp;P1;durP1;ratioP1;P2;durP2;ratioP2
68763;SDS011;55754;52.038;5.566;2023-04-06T00:01:09;20.95;;;10.95;;
68763;SDS011;55754;52.038;5.566;2023-04-06T00:03:35;19.17;;;11.50;;
68763;SDS011;55754;52.038;5.566;2023-04-06T00:06:01;20.90;;;11.27;;
68763;SDS011;55754;52.038;5.566;2023-04-06T00:08:27;20.70;;;11.03;;
68763;SDS011;55754;52.038;5.566;2023-04-06T00:10:53;20.63;;;11.60;;
68763;SDS011;55754;52.038;5.566;2023-04-06T00:13:19;20.87;;;11.17;;
68763;SDS011;55754;52.038;5.566;2023-04-06T00:15:45;23.65;;;11.30;;
68763;SDS011;55754;52.038;5.566;2023-04-06T00:18:10;19.67;;;10.90;;
68763;SDS011;55754;52.038;5.566;2023-04-06T00:20:36;22.88;;;11.15;;
68763;SDS011;55754;52.038;5.566;2023-04-06T00:23:02;20.23;;;11.37;;
68763;SDS011;55754;52.038;5.566;2023-04-06T00:25:27;20.13;;;11.43;;
68763;SDS011;55754;52.038;5.566;2023-04-06T00:27:53;22.38;;;11.88;;
68763;SDS011;55754;52.038;5.566;2023-04-06T00:30:18;20.83;;;10.67;;
68763;SDS011;55754;52.038;5.566;2023-04-06T00:32:44;19.95;;;11.43;;
68763;SDS011;55754;52.038;5.566;2023-04-06T00:35:09;20.07;;;11.17;;
68763;SDS011;55754;52.038;5.566;2023-04-06T00:37:35;20.02;;;11.40;;
68763;SDS011;55754;52.038;5.566;2023-04-06T00:40:01;20.53;;;10.97;;
68763;SDS011;55754;52.038;5.566;2023-04-06T00:42:27;22.10;;;11.45;;
68763;SDS011;55754;52.038;5.566;2023-04-06T00:44:56;21.58;;;11.60;;
68763;SDS011;55754;52.038;5.566;2023-04-06T00:47:23;19.40;;;11.50;;
68763;SDS011;55754;52.038;5.566;2023-04-06T00:49:52;22.70;;;11.77;;
68763;SDS011;55754;52.038;5.566;2023-04-06T00:52:19;21.13;;;11.13;;
68763;SDS011;55754;52.038;5.566;2023-04-06T00:54:44;20.35;;;11.05;;
68763;SDS011;55754;52.038;5.566;2023-04-06T00:57:11;20.33;;;11.57;;
68763;SDS011;55754;52.038;5.566;2023-04-06T00:59:37;18.63;;;10.85;;
68763;SDS011;55754;52.038;5.566;2023-04-06T01:02:03;20.73;;;11.20;;
68763;SDS011;55754;52.038;5.566;2023-04-06T01:04:29;23.17;;;11.07;;
68763;SDS011;55754;52.038;5.566;2023-04-06T01:06:55;20.63;;;10.88;;
68763;SDS011;55754;52.038;5.566;2023-04-06T01:09:20;21.07;;;10.67;;
68763;SDS011;55754;52.038;5.566;2023-04-06T01:11:46;19.67;;;11.05;;
68763;SDS011;55754;52.038;5.566;2023-04-06T01:14:12;19.70;;;10.90;;
68763;SDS011;55754;52.038;5.566;2023-04-06T01:16:40;20.95;;;11.20;;
68763;SDS011;55754;52.038;5.566;2023-04-06T01:19:12;22.90;;;10.83;;
68763;SDS011;55754;52.038;5.566;2023-04-06T01:21:41;20.38;;;11.27;;
68763;SDS011;55754;52.038;5.566;2023-04-06T01:24:07;17.73;;;10.98;;
68763;SDS011;55754;52.038;5.566;2023-04-06T01:26:33;24.43;;;10.63;;
68763;SDS011;55754;52.038;5.566;2023-04-06T01:29:00;17.85;;;10.20;;
68763;SDS011;55754;52.038;5.566;2023-04-06T01:31:26;18.67;;;10.50;;
68763;SDS011;55754;52.038;5.566;2023-04-06T01:33:52;19.38;;;11.18;;
68763;SDS011;55754;52.038;5.566;2023-04-06T01:36:18;18.47;;;10.27;;
68763;SDS011;55754;52.038;5.566;2023-04-06T01:38:44;17.67;;;10.18;;
68763;SDS011;55754;52.038;5.566;2023-04-06T01:41:10;20.30;;;10.73;;
68763;SDS011;55754;52.038;5.566;2023-04-06T01:43:35;19.20;;;10.37;;
68763;SDS011;55754;52.038;5.566;2023-04-06T01:46:01;18.13;;;9.87;;
68763;SDS011;55754;52.038;5.566;2023-04-06T01:48:27;18.08;;;10.20;;
68763;SDS011;55754;52.038;5.566;2023-04-06T01:50:53;19.00;;;9.50;;
68763;SDS011;55754;52.038;5.566;2023-04-06T01:53:19;18.70;;;9.93;;
68763;SDS011;55754;52.038;5.566;2023-04-06T01:55:44;18.20;;;10.45;;
68763;SDS011;55754;52.038;5.566;2023-04-06T01:58:10;20.73;;;9.83;;
68763;SDS011;55754;52.038;5.566;2023-04-06T02:00:36;17.13;;;10.70;;
68763;SDS011;55754;52.038;5.566;2023-04-06T02:03:02;17.45;;;9.60;;
68763;SDS011;55754;52.038;5.566;2023-04-06T02:05:29;19.17;;;10.65;;
68763;SDS011;55754;52.038;5.566;2023-04-06T02:07:55;17.65;;;9.73;;
68763;SDS011;55754;52.038;5.566;2023-04-06T02:10:22;17.52;;;9.75;;
68763;SDS011;55754;52.038;5.566;2023-04-06T02:12:48;16.43;;;9.33;;
68763;SDS011;55754;52.038;5.566;2023-04-06T02:15:14;17.45;;;9.82;;
68763;SDS011;55754;52.038;5.566;2023-04-06T02:17:40;17.57;;;9.57;;
68763;SDS011;55754;52.038;5.566;2023-04-06T02:20:07;17.13;;;9.90;;
68763;SDS011;55754;52.038;5.566;2023-04-06T02:22:33;15.43;;;9.27;;
68763;SDS011;55754;52.038;5.566;2023-04-06T02:24:59;19.20;;;8.55;;
68763;SDS011;55754;52.038;5.566;2023-04-06T02:27:25;15.33;;;8.40;;
68763;SDS011;55754;52.038;5.566;2023-04-06T02:29:50;14.18;;;8.15;;
68763;SDS011;55754;52.038;5.566;2023-04-06T02:32:16;17.73;;;8.77;;
68763;SDS011;55754;52.038;5.566;2023-04-06T02:34:41;16.73;;;8.73;;
68763;SDS011;55754;52.038;5.566;2023-04-06T02:37:07;15.07;;;8.45;;
68763;SDS011;55754;52.038;5.566;2023-04-06T02:39:32;16.20;;;8.40;;
68763;SDS011;55754;52.038;5.566;2023-04-06T02:41:58;16.77;;;8.13;;
68763;SDS011;55754;52.038;5.566;2023-04-06T02:44:23;15.87;;;8.20;;
68763;SDS011;55754;52.038;5.566;2023-04-06T02:46:49;15.87;;;8.50;;
68763;SDS011;55754;52.038;5.566;2023-04-06T02:49:15;14.43;;;7.72;;
68763;SDS011;55754;52.038;5.566;2023-04-06T02:51:41;13.40;;;7.80;;
68763;SDS011;55754;52.038;5.566;2023-04-06T02:54:06;17.27;;;8.47;;
68763;SDS011;55754;52.038;5.566;2023-04-06T02:56:32;15.52;;;8.27;;
68763;SDS011;55754;52.038;5.566;2023-04-06T02:58:57;13.87;;;7.70;;
68763;SDS011;55754;52.038;5.566;2023-04-06T03:01:23;17.90;;;8.17;;
68763;SDS011;55754;52.038;5.566;2023-04-06T03:03:48;17.77;;;8.40;;
68763;SDS011;55754;52.038;5.566;2023-04-06T03:06:14;15.90;;;8.30;;
68763;SDS011;55754;52.038;5.566;2023-04-06T03:08:39;19.53;;;8.97;;
68763;SDS011;55754;52.038;5.566;2023-04-06T03:11:08;15.75;;;8.27;;
68763;SDS011;55754;52.038;5.566;2023-04-06T03:13:33;16.63;;;8.63;;
68763;SDS011;55754;52.038;5.566;2023-04-06T03:15:59;16.60;;;8.45;;
68763;SDS011;55754;52.038;5.566;2023-04-06T03:18:25;15.87;;;8.30;;
68763;SDS011;55754;52.038;5.566;2023-04-06T03:20:50;16.15;;;8.50;;
68763;SDS011;55754;52.038;5.566;2023-04-06T03:23:18;15.82;;;8.10;;
68763;SDS011;55754;52.038;5.566;2023-04-06T03:25:45;16.97;;;8.37;;
68763;SDS011;55754;52.038;5.566;2023-04-06T03:28:11;15.43;;;8.25;;
68763;SDS011;55754;52.038;5.566;2023-04-06T03:30:36;19.67;;;8.80;;
68763;SDS011;55754;52.038;5.566;2023-04-06T03:33:02;15.43;;;8.53;;
68763;SDS011;55754;52.038;5.566;2023-04-06T03:35:28;16.30;;;8.80;;
68763;SDS011;55754;52.038;5.566;2023-04-06T03:37:53;19.77;;;8.70;;
68763;SDS011;55754;52.038;5.566;2023-04-06T03:40:19;15.93;;;9.40;;
68763;SDS011;55754;52.038;5.566;2023-04-06T03:42:44;17.55;;;8.40;;
68763;SDS011;55754;52.038;5.566;2023-04-06T03:45:10;17.10;;;8.97;;
68763;SDS011;55754;52.038;5.566;2023-04-06T03:47:37;15.82;;;8.13;;
68763;SDS011;55754;52.038;5.566;2023-04-06T03:50:03;17.60;;;8.83;;
68763;SDS011;55754;52.038;5.566;2023-04-06T03:52:29;16.35;;;8.55;;
68763;SDS011;55754;52.038;5.566;2023-04-06T03:54:54;15.27;;;8.63;;
68763;SDS011;55754;52.038;5.566;2023-04-06T03:57:23;20.90;;;8.60;;
68763;SDS011;55754;52.038;5.566;2023-04-06T03:59:48;15.70;;;8.90;;
68763;SDS011;55754;52.038;5.566;2023-04-06T04:02:14;16.33;;;8.95;;
68763;SDS011;55754;52.038;5.566;2023-04-06T04:04:40;17.10;;;8.50;;
68763;SDS011;55754;52.038;5.566;2023-04-06T04:07:05;18.85;;;9.05;;
68763;SDS011;55754;52.038;5.566;2023-04-06T04:09:31;16.97;;;9.73;;
68763;SDS011;55754;52.038;5.566;2023-04-06T04:11:56;18.37;;;8.90;;
68763;SDS011;55754;52.038;5.566;2023-04-06T04:14:22;19.15;;;8.98;;
68763;SDS011;55754;52.038;5.566;2023-04-06T04:16:47;17.77;;;8.93;;
68763;SDS011;55754;52.038;5.566;2023-04-06T04:19:13;15.50;;;8.67;;
68763;SDS011;55754;52.038;5.566;2023-04-06T04:21:42;17.93;;;9.03;;
68763;SDS011;55754;52.038;5.566;2023-04-06T04:24:09;15.97;;;8.67;;
68763;SDS011;55754;52.038;5.566;2023-04-06T04:26:35;18.45;;;9.23;;
68763;SDS011;55754;52.038;5.566;2023-04-06T04:29:02;16.60;;;9.00;;
68763;SDS011;55754;52.038;5.566;2023-04-06T04:31:27;16.10;;;8.60;;
68763;SDS011;55754;52.038;5.566;2023-04-06T04:33:56;16.73;;;9.30;;
68763;SDS011;55754;52.038;5.566;2023-04-06T04:36:22;16.10;;;8.63;;
68763;SDS011;55754;52.038;5.566;2023-04-06T04:38:50;15.88;;;8.80;;
68763;SDS011;55754;52.038;5.566;2023-04-06T04:41:16;15.82;;;8.98;;
68763;SDS011;55754;52.038;5.566;2023-04-06T04:43:42;17.00;;;9.20;;
68763;SDS011;55754;52.038;5.566;2023-04-06T04:46:07;16.27;;;8.52;;
68763;SDS011;55754;52.038;5.566;2023-04-06T04:48:33;24.63;;;9.53;;
68763;SDS011;55754;52.038;5.566;2023-04-06T04:50:58;19.97;;;9.53;;
68763;SDS011;55754;52.038;5.566;2023-04-06T04:53:24;18.17;;;9.23;;
68763;SDS011;55754;52.038;5.566;2023-04-06T04:55:49;17.43;;;9.70;;
68763;SDS011;55754;52.038;5.566;2023-04-06T04:58:15;18.00;;;9.25;;
68763;SDS011;55754;52.038;5.566;2023-04-06T05:00:44;18.87;;;9.03;;
68763;SDS011;55754;52.038;5.566;2023-04-06T05:03:14;19.85;;;9.30;;
68763;SDS011;55754;52.038;5.566;2023-04-06T05:05:47;19.33;;;9.80;;
68763;SDS011;55754;52.038;5.566;2023-04-06T05:08:12;19.00;;;9.27;;
68763;SDS011;55754;52.038;5.566;2023-04-06T05:10:38;21.53;;;10.00;;
68763;SDS011;55754;52.038;5.566;2023-04-06T05:13:06;18.60;;;9.77;;
68763;SDS011;55754;52.038;5.566;2023-04-06T05:15:32;20.27;;;9.73;;
68763;SDS011;55754;52.038;5.566;2023-04-06T05:18:02;20.75;;;9.77;;
68763;SDS011;55754;52.038;5.566;2023-04-06T05:20:28;17.58;;;9.52;;
68763;SDS011;55754;52.038;5.566;2023-04-06T05:22:54;21.17;;;10.33;;
68763;SDS011;55754;52.038;5.566;2023-04-06T05:25:20;22.13;;;9.70;;
68763;SDS011;55754;52.038;5.566;2023-04-06T05:27:45;19.73;;;9.57;;
68763;SDS011;55754;52.038;5.566;2023-04-06T05:30:11;19.70;;;9.97;;
68763;SDS011;55754;52.038;5.566;2023-04-06T05:32:37;18.17;;;9.95;;
68763;SDS011;55754;52.038;5.566;2023-04-06T05:35:02;17.57;;;9.53;;
68763;SDS011;55754;52.038;5.566;2023-04-06T05:37:28;20.13;;;9.77;;
68763;SDS011;55754;52.038;5.566;2023-04-06T05:39:53;21.77;;;10.60;;
68763;SDS011;55754;52.038;5.566;2023-04-06T05:42:19;18.97;;;10.23;;
68763;SDS011;55754;52.038;5.566;2023-04-06T05:44:44;22.20;;;10.55;;
68763;SDS011;55754;52.038;5.566;2023-04-06T05:47:10;19.30;;;10.20;;
68763;SDS011;55754;52.038;5.566;2023-04-06T05:49:36;20.97;;;10.70;;
68763;SDS011;55754;52.038;5.566;2023-04-06T05:52:01;19.50;;;10.40;;
68763;SDS011;55754;52.038;5.566;2023-04-06T05:54:27;20.57;;;10.43;;
68763;SDS011;55754;52.038;5.566;2023-04-06T05:56:52;21.50;;;10.27;;
68763;SDS011;55754;52.038;5.566;2023-04-06T05:59:18;22.80;;;11.00;;
68763;SDS011;55754;52.038;5.566;2023-04-06T06:01:43;21.17;;;11.00;;
68763;SDS011;55754;52.038;5.566;2023-04-06T06:04:09;19.87;;;10.83;;
68763;SDS011;55754;52.038;5.566;2023-04-06T06:06:34;20.75;;;11.30;;
68763;SDS011;55754;52.038;5.566;2023-04-06T06:09:00;21.83;;;11.67;;
68763;SDS011;55754;52.038;5.566;2023-04-06T06:11:29;25.85;;;11.32;;
68763;SDS011;55754;52.038;5.566;2023-04-06T06:13:55;20.77;;;10.68;;
68763;SDS011;55754;52.038;5.566;2023-04-06T06:16:20;20.08;;;10.73;;
68763;SDS011;55754;52.038;5.566;2023-04-06T06:18:46;26.53;;;11.13;;
68763;SDS011;55754;52.038;5.566;2023-04-06T06:21:12;21.70;;;11.13;;
68763;SDS011;55754;52.038;5.566;2023-04-06T06:23:38;22.93;;;10.73;;
68763;SDS011;55754;52.038;5.566;2023-04-06T06:26:04;21.02;;;11.40;;
68763;SDS011;55754;52.038;5.566;2023-04-06T06:28:30;20.83;;;11.10;;
68763;SDS011;55754;52.038;5.566;2023-04-06T06:30:55;21.92;;;11.55;;
68763;SDS011;55754;52.038;5.566;2023-04-06T06:33:21;22.17;;;11.23;;
68763;SDS011;55754;52.038;5.566;2023-04-06T06:35:46;25.88;;;11.48;;
68763;SDS011;55754;52.038;5.566;2023-04-06T06:38:12;24.90;;;12.17;;
68763;SDS011;55754;52.038;5.566;2023-04-06T06:40:38;22.00;;;11.10;;
68763;SDS011;55754;52.038;5.566;2023-04-06T06:43:04;25.40;;;12.33;;
68763;SDS011;55754;52.038;5.566;2023-04-06T06:45:30;23.33;;;12.02;;
68763;SDS011;55754;52.038;5.566;2023-04-06T06:47:56;23.05;;;12.27;;
68763;SDS011;55754;52.038;5.566;2023-04-06T06:50:21;25.20;;;12.73;;
68763;SDS011;55754;52.038;5.566;2023-04-06T06:52:47;21.77;;;11.90;;
68763;SDS011;55754;52.038;5.566;2023-04-06T06:55:12;23.93;;;12.13;;
68763;SDS011;55754;52.038;5.566;2023-04-06T06:57:38;25.50;;;12.82;;
68763;SDS011;55754;52.038;5.566;2023-04-06T07:00:04;23.77;;;12.10;;
68763;SDS011;55754;52.038;5.566;2023-04-06T07:02:31;26.75;;;12.63;;
68763;SDS011;55754;52.038;5.566;2023-04-06T07:04:57;26.63;;;12.60;;
68763;SDS011;55754;52.038;5.566;2023-04-06T07:07:22;23.30;;;11.98;;
68763;SDS011;55754;52.038;5.566;2023-04-06T07:09:48;24.30;;;12.33;;
68763;SDS011;55754;52.038;5.566;2023-04-06T07:12:13;31.17;;;11.97;;
68763;SDS011;55754;52.038;5.566;2023-04-06T07:14:39;23.10;;;12.20;;
68763;SDS011;55754;52.038;5.566;2023-04-06T07:17:05;27.70;;;13.03;;
68763;SDS011;55754;52.038;5.566;2023-04-06T07:19:31;26.02;;;12.13;;
68763;SDS011;55754;52.038;5.566;2023-04-06T07:21:56;21.97;;;12.50;;
68763;SDS011;55754;52.038;5.566;2023-04-06T07:24:22;24.33;;;13.20;;
68763;SDS011;55754;52.038;5.566;2023-04-06T07:26:47;22.67;;;13.10;;
68763;SDS011;55754;52.038;5.566;2023-04-06T07:29:13;27.63;;;13.60;;
68763;SDS011;55754;52.038;5.566;2023-04-06T07:31:38;30.90;;;13.20;;
68763;SDS011;55754;52.038;5.566;2023-04-06T07:34:04;23.95;;;12.82;;
68763;SDS011;55754;52.038;5.566;2023-04-06T07:36:30;25.43;;;12.60;;
68763;SDS011;55754;52.038;5.566;2023-04-06T07:38:55;26.40;;;13.75;;
68763;SDS011;55754;52.038;5.566;2023-04-06T07:41:21;23.20;;;13.10;;
68763;SDS011;55754;52.038;5.566;2023-04-06T07:43:46;24.13;;;13.30;;
68763;SDS011;55754;52.038;5.566;2023-04-06T07:46:12;35.97;;;13.00;;
68763;SDS011;55754;52.038;5.566;2023-04-06T07:48:37;30.53;;;13.60;;
68763;SDS011;55754;52.038;5.566;2023-04-06T07:51:03;26.17;;;13.40;;
68763;SDS011;55754;52.038;5.566;2023-04-06T07:53:29;24.98;;;13.02;;
68763;SDS011;55754;52.038;5.566;2023-04-06T07:55:55;26.48;;;12.85;;
68763;SDS011;55754;52.038;5.566;2023-04-06T07:58:22;21.95;;;12.82;;
68763;SDS011;55754;52.038;5.566;2023-04-06T08:00:47;23.57;;;13.30;;
68763;SDS011;55754;52.038;5.566;2023-04-06T08:03:13;26.10;;;13.97;;
68763;SDS011;55754;52.038;5.566;2023-04-06T08:05:38;26.50;;;13.45;;
68763;SDS011;55754;52.038;5.566;2023-04-06T08:08:04;25.33;;;13.20;;
68763;SDS011;55754;52.038;5.566;2023-04-06T08:10:30;24.10;;;13.97;;
68763;SDS011;55754;52.038;5.566;2023-04-06T08:12:55;25.23;;;13.50;;
68763;SDS011;55754;52.038;5.566;2023-04-06T08:15:21;26.10;;;13.87;;
68763;SDS011;55754;52.038;5.566;2023-04-06T08:17:50;28.08;;;14.20;;
68763;SDS011;55754;52.038;5.566;2023-04-06T08:20:15;25.83;;;13.97;;
68763;SDS011;55754;52.038;5.566;2023-04-06T08:22:44;25.70;;;14.13;;
68763;SDS011;55754;52.038;5.566;2023-04-06T08:25:09;26.70;;;14.63;;
68763;SDS011;55754;52.038;5.566;2023-04-06T08:27:35;29.73;;;13.95;;
68763;SDS011;55754;52.038;5.566;2023-04-06T08:30:00;27.73;;;13.93;;
68763;SDS011;55754;52.038;5.566;2023-04-06T08:32:26;29.70;;;13.77;;
68763;SDS011;55754;52.038;5.566;2023-04-06T08:34:54;26.33;;;13.82;;
68763;SDS011;55754;52.038;5.566;2023-04-06T08:37:21;26.98;;;13.88;;
68763;SDS011;55754;52.038;5.566;2023-04-06T08:39:47;27.73;;;14.00;;
68763;SDS011;55754;52.038;5.566;2023-04-06T08:42:16;23.35;;;13.43;;
68763;SDS011;55754;52.038;5.566;2023-04-06T08:44:45;29.73;;;14.45;;
68763;SDS011;55754;52.038;5.566;2023-04-06T08:47:12;25.13;;;14.23;;
68763;SDS011;55754;52.038;5.566;2023-04-06T08:49:37;29.90;;;14.48;;
68763;SDS011;55754;52.038;5.566;2023-04-06T08:52:06;27.35;;;14.80;;
68763;SDS011;55754;52.038;5.566;2023-04-06T08:54:35;24.57;;;14.30;;
68763;SDS011;55754;52.038;5.566;2023-04-06T08:57:01;25.40;;;14.45;;
68763;SDS011;55754;52.038;5.566;2023-04-06T08:59:27;35.20;;;14.75;;
68763;SDS011;55754;52.038;5.566;2023-04-06T09:01:54;26.03;;;13.53;;
68763;SDS011;55754;52.038;5.566;2023-04-06T09:04:20;24.48;;;14.05;;
68763;SDS011;55754;52.038;5.566;2023-04-06T09:06:46;25.95;;;14.18;;
68763;SDS011;55754;52.038;5.566;2023-04-06T09:09:12;23.97;;;14.13;;
68763;SDS011;55754;52.038;5.566;2023-04-06T09:11:47;29.67;;;14.70;;
68763;SDS011;55754;52.038;5.566;2023-04-06T09:14:32;32.75;;;16.00;;
68763;SDS011;55754;52.038;5.566;2023-04-06T09:17:02;25.30;;;14.30;;
68763;SDS011;55754;52.038;5.566;2023-04-06T09:19:28;30.03;;;14.87;;
68763;SDS011;55754;52.038;5.566;2023-04-06T09:22:05;28.65;;;14.75;;
68763;SDS011;55754;52.038;5.566;2023-04-06T09:24:41;29.27;;;15.18;;
68763;SDS011;55754;52.038;5.566;2023-04-06T09:27:08;28.43;;;15.47;;
68763;SDS011;55754;52.038;5.566;2023-04-06T09:29:34;33.67;;;15.95;;
68763;SDS011;55754;52.038;5.566;2023-04-06T09:32:04;28.27;;;15.35;;
68763;SDS011;55754;52.038;5.566;2023-04-06T09:34:31;28.98;;;15.38;;
68763;SDS011;55754;52.038;5.566;2023-04-06T09:36:57;26.87;;;15.40;;
68763;SDS011;55754;52.038;5.566;2023-04-06T09:39:23;27.98;;;15.43;;
68763;SDS011;55754;52.038;5.566;2023-04-06T09:41:53;30.55;;;16.23;;
68763;SDS011;55754;52.038;5.566;2023-04-06T09:44:19;28.13;;;15.73;;
68763;SDS011;55754;52.038;5.566;2023-04-06T09:46:45;29.35;;;15.13;;
68763;SDS011;55754;52.038;5.566;2023-04-06T09:49:12;37.53;;;15.33;;
68763;SDS011;55754;52.038;5.566;2023-04-06T09:51:39;27.02;;;14.93;;
68763;SDS011;55754;52.038;5.566;2023-04-06T09:54:06;26.55;;;15.05;;
68763;SDS011;55754;52.038;5.566;2023-04-06T09:56:50;30.85;;;14.70;;
68763;SDS011;55754;52.038;5.566;2023-04-06T10:02:15;31.23;;;15.17;;
68763;SDS011;55754;52.038;5.566;2023-04-06T10:04:53;32.67;;;15.85;;
68763;SDS011;55754;52.038;5.566;2023-04-06T10:07:23;29.17;;;15.27;;
68763;SDS011;55754;52.038;5.566;2023-04-06T10:09:48;27.37;;;14.67;;
68763;SDS011;55754;52.038;5.566;2023-04-06T10:12:15;29.55;;;14.43;;
68763;SDS011;55754;52.038;5.566;2023-04-06T10:14:41;31.55;;;15.30;;
68763;SDS011;55754;52.038;5.566;2023-04-06T10:17:08;28.08;;;14.85;;
68763;SDS011;55754;52.038;5.566;2023-04-06T10:22:19;27.13;;;14.20;;
68763;SDS011;55754;52.038;5.566;2023-04-06T10:24:51;26.38;;;13.48;;
68763;SDS011;55754;52.038;5.566;2023-04-06T10:27:16;28.55;;;13.52;;
68763;SDS011;55754;52.038;5.566;2023-04-06T10:29:52;25.97;;;13.90;;
68763;SDS011;55754;52.038;5.566;2023-04-06T10:32:18;27.52;;;13.93;;
68763;SDS011;55754;52.038;5.566;2023-04-06T10:34:43;21.70;;;12.07;;
68763;SDS011;55754;52.038;5.566;2023-04-06T10:37:12;20.83;;;12.13;;
68763;SDS011;55754;52.038;5.566;2023-04-06T10:39:45;20.58;;;11.02;;
68763;SDS011;55754;52.038;5.566;2023-04-06T10:42:13;24.33;;;11.68;;
68763;SDS011;55754;52.038;5.566;2023-04-06T10:44:42;20.03;;;11.67;;
68763;SDS011;55754;52.038;5.566;2023-04-06T10:47:15;22.37;;;12.27;;
68763;SDS011;55754;52.038;5.566;2023-04-06T10:49:42;26.58;;;11.57;;
68763;SDS011;55754;52.038;5.566;2023-04-06T10:52:08;20.63;;;10.70;;
68763;SDS011;55754;52.038;5.566;2023-04-06T10:54:34;18.17;;;10.50;;
68763;SDS011;55754;52.038;5.566;2023-04-06T10:57:07;16.55;;;9.65;;
68763;SDS011;55754;52.038;5.566;2023-04-06T10:59:32;21.13;;;9.82;;
68763;SDS011;55754;52.038;5.566;2023-04-06T11:01:58;16.10;;;9.60;;
68763;SDS011;55754;52.038;5.566;2023-04-06T11:04:26;17.63;;;9.88;;
68763;SDS011;55754;52.038;5.566;2023-04-06T11:06:52;17.47;;;9.57;;
68763;SDS011;55754;52.038;5.566;2023-04-06T11:09:28;14.77;;;7.57;;
68763;SDS011;55754;52.038;5.566;2023-04-06T11:11:56;17.60;;;6.97;;
68763;SDS011;55754;52.038;5.566;2023-04-06T11:14:21;11.97;;;6.27;;
68763;SDS011;55754;52.038;5.566;2023-04-06T11:16:47;12.23;;;6.57;;
68763;SDS011;55754;52.038;5.566;2023-04-06T11:19:15;14.47;;;7.53;;
68763;SDS011;55754;52.038;5.566;2023-04-06T11:21:41;13.32;;;6.57;;
68763;SDS011;55754;52.038;5.566;2023-04-06T11:24:12;12.20;;;6.38;;
68763;SDS011;55754;52.038;5.566;2023-04-06T11:29:13;13.63;;;7.03;;
68763;SDS011;55754;52.038;5.566;2023-04-06T11:31:42;14.43;;;6.67;;
68763;SDS011;55754;52.038;5.566;2023-04-06T11:34:11;11.43;;;6.55;;
68763;SDS011;55754;52.038;5.566;2023-04-06T11:36:41;11.95;;;6.55;;
68763;SDS011;55754;52.038;5.566;2023-04-06T11:39:07;15.57;;;7.07;;
68763;SDS011;55754;52.038;5.566;2023-04-06T11:41:36;13.38;;;6.35;;
68763;SDS011;55754;52.038;5.566;2023-04-06T11:44:02;13.43;;;6.47;;
68763;SDS011;55754;52.038;5.566;2023-04-06T11:46:28;12.40;;;6.32;;
68763;SDS011;55754;52.038;5.566;2023-04-06T11:48:57;13.53;;;6.90;;
68763;SDS011;55754;52.038;5.566;2023-04-06T11:51:24;11.63;;;6.70;;
68763;SDS011;55754;52.038;5.566;2023-04-06T11:53:49;11.18;;;6.10;;
68763;SDS011;55754;52.038;5.566;2023-04-06T11:56:28;12.03;;;6.10;;
68763;SDS011;55754;52.038;5.566;2023-04-06T11:58:55;11.02;;;5.93;;
68763;SDS011;55754;52.038;5.566;2023-04-06T12:01:22;11.38;;;5.57;;
68763;SDS011;55754;52.038;5.566;2023-04-06T12:03:48;11.47;;;5.27;;
68763;SDS011;55754;52.038;5.566;2023-04-06T12:06:15;13.45;;;5.53;;
68763;SDS011;55754;52.038;5.566;2023-04-06T12:08:40;12.50;;;5.13;;
68763;SDS011;55754;52.038;5.566;2023-04-06T12:11:06;10.80;;;4.97;;
68763;SDS011;55754;52.038;5.566;2023-04-06T12:13:31;10.73;;;5.50;;
68763;SDS011;55754;52.038;5.566;2023-04-06T12:15:57;10.15;;;4.47;;
68763;SDS011;55754;52.038;5.566;2023-04-06T12:18:23;11.27;;;4.83;;
68763;SDS011;55754;52.038;5.566;2023-04-06T12:20:48;10.60;;;4.95;;
68763;SDS011;55754;52.038;5.566;2023-04-06T12:23:14;9.47;;;4.97;;
68763;SDS011;55754;52.038;5.566;2023-04-06T12:25:40;10.90;;;5.07;;
68763;SDS011;55754;52.038;5.566;2023-04-06T12:28:07;10.93;;;5.30;;
68763;SDS011;55754;52.038;5.566;2023-04-06T12:30:34;12.75;;;4.95;;
68763;SDS011;55754;52.038;5.566;2023-04-06T12:33:00;10.17;;;4.90;;
68763;SDS011;55754;52.038;5.566;2023-04-06T12:35:26;13.25;;;4.90;;
68763;SDS011;55754;52.038;5.566;2023-04-06T12:37:55;9.63;;;4.95;;
68763;SDS011;55754;52.038;5.566;2023-04-06T12:40:20;15.03;;;4.93;;
68763;SDS011;55754;52.038;5.566;2023-04-06T12:42:46;9.50;;;5.20;;
68763;SDS011;55754;52.038;5.566;2023-04-06T12:45:11;9.57;;;5.20;;
68763;SDS011;55754;52.038;5.566;2023-04-06T12:47:37;9.77;;;5.25;;
68763;SDS011;55754;52.038;5.566;2023-04-06T12:50:03;10.20;;;5.40;;
68763;SDS011;55754;52.038;5.566;2023-04-06T12:52:30;10.40;;;5.28;;
68763;SDS011;55754;52.038;5.566;2023-04-06T12:54:57;12.85;;;6.38;;
68763;SDS011;55754;52.038;5.566;2023-04-06T12:57:24;10.45;;;5.63;;
68763;SDS011;55754;52.038;5.566;2023-04-06T12:59:50;10.68;;;5.90;;
68763;SDS011;55754;52.038;5.566;2023-04-06T13:02:16;13.73;;;5.80;;
68763;SDS011;55754;52.038;5.566;2023-04-06T13:04:42;11.90;;;5.78;;
68763;SDS011;55754;52.038;5.566;2023-04-06T13:07:07;10.27;;;5.57;;
68763;SDS011;55754;52.038;5.566;2023-04-06T13:09:33;11.18;;;5.72;;
68763;SDS011;55754;52.038;5.566;2023-04-06T13:11:58;11.17;;;5.97;;
68763;SDS011;55754;52.038;5.566;2023-04-06T13:14:24;11.50;;;5.50;;
68763;SDS011;55754;52.038;5.566;2023-04-06T13:16:50;11.93;;;6.10;;
68763;SDS011;55754;52.038;5.566;2023-04-06T13:19:16;11.40;;;5.60;;
68763;SDS011;55754;52.038;5.566;2023-04-06T13:21:43;10.23;;;5.33;;
68763;SDS011;55754;52.038;5.566;2023-04-06T13:24:08;11.98;;;5.88;;
68763;SDS011;55754;52.038;5.566;2023-04-06T13:26:34;11.30;;;5.67;;
68763;SDS011;55754;52.038;5.566;2023-04-06T13:29:01;12.82;;;5.80;;
68763;SDS011;55754;52.038;5.566;2023-04-06T13:31:27;11.70;;;5.70;;
68763;SDS011;55754;52.038;5.566;2023-04-06T13:33:53;11.57;;;5.85;;
68763;SDS011;55754;52.038;5.566;2023-04-06T13:36:19;13.90;;;6.03;;
68763;SDS011;55754;52.038;5.566;2023-04-06T13:38:45;10.75;;;5.90;;
68763;SDS011;55754;52.038;5.566;2023-04-06T13:41:17;11.90;;;6.57;;
68763;SDS011;55754;52.038;5.566;2023-04-06T13:43:49;10.57;;;5.50;;
68763;SDS011;55754;52.038;5.566;2023-04-06T13:46:14;11.18;;;5.78;;
68763;SDS011;55754;52.038;5.566;2023-04-06T13:48:41;11.63;;;6.07;;
68763;SDS011;55754;52.038;5.566;2023-04-06T13:51:07;11.70;;;6.47;;
68763;SDS011;55754;52.038;5.566;2023-04-06T13:53:34;12.93;;;6.40;;
68763;SDS011;55754;52.038;5.566;2023-04-06T13:56:00;11.73;;;6.00;;
68763;SDS011;55754;52.038;5.566;2023-04-06T13:58:25;12.45;;;6.30;;
68763;SDS011;55754;52.038;5.566;2023-04-06T14:00:51;13.63;;;6.87;;
68763;SDS011;55754;52.038;5.566;2023-04-06T14:03:17;13.07;;;6.25;;
68763;SDS011;55754;52.038;5.566;2023-04-06T14:05:44;14.07;;;6.17;;
68763;SDS011;55754;52.038;5.566;2023-04-06T14:08:10;12.87;;;5.60;;
68763;SDS011;55754;52.038;5.566;2023-04-06T14:10:39;12.63;;;6.35;;
68763;SDS011;55754;52.038;5.566;2023-04-06T14:13:05;11.35;;;6.28;;
68763;SDS011;55754;52.038;5.566;2023-04-06T14:15:31;13.30;;;6.10;;
68763;SDS011;55754;52.038;5.566;2023-04-06T14:17:57;14.35;;;7.03;;
68763;SDS011;55754;52.038;5.566;2023-04-06T14:20:22;12.43;;;6.57;;
68763;SDS011;55754;52.038;5.566;2023-04-06T14:22:48;12.43;;;6.40;;
68763;SDS011;55754;52.038;5.566;2023-04-06T14:25:14;10.80;;;6.05;;
68763;SDS011;55754;52.038;5.566;2023-04-06T14:27:41;12.25;;;6.68;;
68763;SDS011;55754;52.038;5.566;2023-04-06T14:30:10;12.30;;;6.30;;
68763;SDS011;55754;52.038;5.566;2023-04-06T14:32:36;14.85;;;6.65;;